createdAt,value
2023-04-25T00:00:24.388Z,1.48
2023-04-25T00:01:48.076Z,1.60
2023-04-25T00:03:11.959Z,1.90
2023-04-25T00:04:36.259Z,1.70
2023-04-25T00:06:03.261Z,1.40
2023-04-25T00:07:30.015Z,1.50
2023-04-25T00:08:53.649Z,1.30
2023-04-25T00:10:17.425Z,1.50
2023-04-25T00:11:40.039Z,1.20
2023-04-25T00:13:04.227Z,1.73
2023-04-25T00:14:26.831Z,1.52
2023-04-25T00:15:51.612Z,1.52
2023-04-25T00:17:20.972Z,1.40
2023-04-25T00:18:43.697Z,1.60
2023-04-25T00:20:10.050Z,1.60
2023-04-25T00:21:34.224Z,1.73
2023-04-25T00:22:58.166Z,1.58
2023-04-25T00:24:21.027Z,1.38
2023-04-25T00:25:44.645Z,1.85
2023-04-25T00:27:08.224Z,1.75
2023-04-25T00:28:31.940Z,1.65
2023-04-25T00:29:55.515Z,1.33
2023-04-25T00:31:19.323Z,1.67
2023-04-25T00:32:41.987Z,1.45
2023-04-25T00:34:12.655Z,1.70
2023-04-25T00:35:40.916Z,1.60
2023-04-25T00:37:07.094Z,1.48
2023-04-25T00:38:30.718Z,1.80
2023-04-25T00:39:55.846Z,1.60
2023-04-25T00:41:20.191Z,1.77
2023-04-25T00:42:44.549Z,1.63
2023-04-25T00:44:12.200Z,1.40
2023-04-25T00:45:38.026Z,1.88
2023-04-25T00:48:25.337Z,1.88
2023-04-25T00:49:49.096Z,1.55
2023-04-25T00:51:15.651Z,1.60
2023-04-25T00:52:41.502Z,1.42
2023-04-25T00:54:05.225Z,1.92
2023-04-25T00:55:28.090Z,1.70
2023-04-25T00:56:53.717Z,2.15
2023-04-25T00:58:17.433Z,1.65
2023-04-25T00:59:41.317Z,1.67
2023-04-25T01:01:04.862Z,2.05
2023-04-25T01:02:29.513Z,1.70
2023-04-25T01:03:54.054Z,1.63
2023-04-25T01:05:19.840Z,1.98
2023-04-25T01:06:42.393Z,1.80
2023-04-25T01:08:07.664Z,1.90
2023-04-25T01:09:32.535Z,1.73
2023-04-25T01:10:56.214Z,1.77
2023-04-25T01:12:18.883Z,1.83
2023-04-25T01:13:42.546Z,1.95
2023-04-25T01:15:09.771Z,1.80
2023-04-25T01:16:34.247Z,1.73
2023-04-25T01:17:58.036Z,1.70
2023-04-25T01:19:22.480Z,1.55
2023-04-25T01:20:45.524Z,2.40
2023-04-25T01:22:11.840Z,1.63
2023-04-25T01:23:34.988Z,1.88
2023-04-25T01:24:58.684Z,2.00
2023-04-25T01:26:22.446Z,1.52
2023-04-25T01:27:46.381Z,1.95
2023-04-25T01:29:10.836Z,1.60
2023-04-25T01:30:34.629Z,2.00
2023-04-25T01:32:02.461Z,2.10
2023-04-25T01:33:26.307Z,1.95
2023-04-25T01:34:48.873Z,1.92
2023-04-25T01:36:12.688Z,1.95
2023-04-25T01:37:37.644Z,1.90
2023-04-25T01:39:01.709Z,1.95
2023-04-25T01:40:25.317Z,2.20
2023-04-25T01:41:49.577Z,1.73
2023-04-25T01:43:13.856Z,1.80
2023-04-25T01:44:37.454Z,1.65
2023-04-25T01:46:01.724Z,1.65
2023-04-25T01:47:25.680Z,1.73
2023-04-25T01:48:50.284Z,1.80
2023-04-25T01:50:14.384Z,1.90
2023-04-25T01:51:37.056Z,1.95
2023-04-25T01:53:02.767Z,1.75
2023-04-25T01:54:26.495Z,1.75
2023-04-25T01:55:49.089Z,1.30
2023-04-25T01:57:12.722Z,1.73
2023-04-25T01:58:38.311Z,1.83
2023-04-25T02:00:03.836Z,2.28
2023-04-25T02:01:27.465Z,1.73
2023-04-25T02:02:51.817Z,2.03
2023-04-25T02:04:15.741Z,2.28
2023-04-25T02:05:39.882Z,1.80
2023-04-25T02:07:02.636Z,2.28
2023-04-25T02:08:27.839Z,1.88
2023-04-25T02:09:50.593Z,2.33
2023-04-25T02:11:14.220Z,2.28
2023-04-25T02:12:37.555Z,2.22
2023-04-25T02:14:01.255Z,2.00
2023-04-25T02:15:23.810Z,1.70
2023-04-25T02:16:48.836Z,2.53
2023-04-25T02:18:17.039Z,2.05
2023-04-25T02:19:40.814Z,1.80
2023-04-25T02:21:04.680Z,2.10
2023-04-25T02:22:32.738Z,1.80
2023-04-25T02:23:57.655Z,1.92
2023-04-25T02:25:21.075Z,2.20
2023-04-25T02:26:45.115Z,2.20
2023-04-25T02:28:08.994Z,2.28
2023-04-25T02:29:35.134Z,2.80
2023-04-25T02:30:58.841Z,2.40
2023-04-25T02:32:22.504Z,2.10
2023-04-25T02:33:56.044Z,2.38
2023-04-25T02:35:19.914Z,2.45
2023-04-25T02:36:42.483Z,1.90
2023-04-25T02:38:06.072Z,2.28
2023-04-25T02:39:31.916Z,2.20
2023-04-25T02:40:54.461Z,2.92
2023-04-25T02:42:18.031Z,2.40
2023-04-25T02:43:40.797Z,2.60
2023-04-25T02:45:04.735Z,2.15
2023-04-25T02:46:38.464Z,2.50
2023-04-25T02:48:05.607Z,2.60
2023-04-25T02:49:29.232Z,2.72
2023-04-25T02:50:52.785Z,2.15
2023-04-25T02:52:16.886Z,2.33
2023-04-25T02:53:39.457Z,2.78
2023-04-25T02:55:08.181Z,2.22
2023-04-25T02:56:32.735Z,2.75
2023-04-25T02:57:56.357Z,2.40
2023-04-25T02:59:20.074Z,2.45
2023-04-25T03:00:42.639Z,2.65
2023-04-25T03:02:06.156Z,2.60
2023-04-25T03:03:28.870Z,2.72
2023-04-25T03:04:52.833Z,2.58
2023-04-25T03:06:16.806Z,2.60
2023-04-25T03:07:44.704Z,2.20
2023-04-25T03:09:07.330Z,2.63
2023-04-25T03:10:32.193Z,2.58
2023-04-25T03:11:55.906Z,2.75
2023-04-25T03:13:21.349Z,2.58
2023-04-25T03:14:44.907Z,2.58
2023-04-25T03:16:07.975Z,2.72
2023-04-25T03:17:31.700Z,2.40
2023-04-25T03:18:57.711Z,2.50
2023-04-25T03:20:20.329Z,2.10
2023-04-25T03:21:43.993Z,2.65
2023-04-25T03:23:06.442Z,2.20
2023-04-25T03:24:30.154Z,2.90
2023-04-25T03:25:53.997Z,2.90
2023-04-25T03:27:17.680Z,2.47
2023-04-25T03:28:41.137Z,2.88
2023-04-25T03:30:06.579Z,2.42
2023-04-25T03:31:29.243Z,2.38
2023-04-25T03:32:52.883Z,3.33
2023-04-25T03:34:15.772Z,2.38
2023-04-25T03:35:46.217Z,2.47
2023-04-25T03:37:12.350Z,2.75
2023-04-25T03:38:34.817Z,2.30
2023-04-25T03:39:58.431Z,2.75
2023-04-25T03:41:23.193Z,2.50
2023-04-25T03:42:46.916Z,2.50
2023-04-25T03:44:16.165Z,3.05
2023-04-25T03:45:39.762Z,2.65
2023-04-25T03:47:03.328Z,2.38
2023-04-25T03:48:26.965Z,2.92
2023-04-25T03:49:52.762Z,2.85
2023-04-25T03:51:16.685Z,3.00
2023-04-25T03:52:39.245Z,2.60
2023-04-25T03:54:02.841Z,2.50
2023-04-25T03:55:26.485Z,3.08
2023-04-25T03:56:51.459Z,2.47
2023-04-25T03:58:15.042Z,2.80
2023-04-25T03:59:38.596Z,2.08
2023-04-25T04:01:04.091Z,2.50
2023-04-25T04:02:27.653Z,2.55
2023-04-25T04:03:50.850Z,3.00
2023-04-25T04:05:14.791Z,2.85
2023-04-25T04:06:38.878Z,2.67
2023-04-25T04:08:01.475Z,2.80
2023-04-25T04:09:25.091Z,2.53
2023-04-25T04:10:47.718Z,2.70
2023-04-25T04:12:12.710Z,2.55
2023-04-25T04:13:38.340Z,2.42
2023-04-25T04:15:04.642Z,2.10
2023-04-25T04:16:28.335Z,2.50
2023-04-25T04:17:52.111Z,2.15
2023-04-25T04:19:16.524Z,2.70
2023-04-25T04:20:42.902Z,2.80
2023-04-25T04:22:05.486Z,2.17
2023-04-25T04:23:29.258Z,2.65
2023-04-25T04:24:55.836Z,2.63
2023-04-25T04:26:24.400Z,2.50
2023-04-25T04:27:48.421Z,2.83
2023-04-25T04:29:12.227Z,2.47
2023-04-25T04:30:37.227Z,2.65
2023-04-25T04:32:02.159Z,2.53
2023-04-25T04:33:31.205Z,3.05
2023-04-25T04:35:03.131Z,2.97
2023-04-25T04:36:27.510Z,2.80
2023-04-25T04:37:54.035Z,2.97
2023-04-25T04:39:18.102Z,2.70
2023-04-25T04:40:41.977Z,2.40
2023-04-25T04:42:05.992Z,2.65
2023-04-25T04:43:34.318Z,3.67
2023-04-25T04:45:02.686Z,2.65
2023-04-25T04:46:26.397Z,2.67
2023-04-25T04:47:49.717Z,2.58
2023-04-25T04:49:19.013Z,2.15
2023-04-25T04:50:43.226Z,2.47
2023-04-25T04:52:07.089Z,2.63
2023-04-25T04:53:30.724Z,2.75
2023-04-25T04:54:54.863Z,2.70
2023-04-25T04:56:18.537Z,2.60
2023-04-25T04:57:42.177Z,2.60
2023-04-25T04:59:08.058Z,2.65
2023-04-25T05:00:31.737Z,2.22
2023-04-25T05:01:54.614Z,2.70
2023-04-25T05:03:20.702Z,2.50
2023-04-25T05:04:43.606Z,3.15
2023-04-25T05:06:07.777Z,2.40
2023-04-25T05:07:30.383Z,2.58
2023-04-25T05:08:54.416Z,3.00
2023-04-25T05:10:17.787Z,2.58
2023-04-25T05:11:41.359Z,3.00
2023-04-25T05:13:03.998Z,2.80
2023-04-25T05:14:28.968Z,2.63
2023-04-25T05:15:52.425Z,3.10
2023-04-25T05:17:15.022Z,2.67
2023-04-25T05:18:41.724Z,2.45
2023-04-25T05:20:06.780Z,3.30
2023-04-25T05:21:30.363Z,2.88
2023-04-25T05:22:54.417Z,2.63
2023-04-25T05:24:17.960Z,2.83
2023-04-25T05:25:41.522Z,3.08
2023-04-25T05:27:06.591Z,3.47
2023-04-25T05:28:30.155Z,2.78
2023-04-25T05:29:55.060Z,2.78
2023-04-25T05:31:22.170Z,3.42
2023-04-25T05:32:46.247Z,2.35
2023-04-25T05:34:09.884Z,2.40
2023-04-25T05:35:33.548Z,2.72
2023-04-25T05:37:02.341Z,2.53
2023-04-25T05:38:25.857Z,3.42
2023-04-25T05:39:49.571Z,2.67
2023-04-25T05:41:15.200Z,2.33
2023-04-25T05:42:46.434Z,2.67
2023-04-25T05:44:10.231Z,2.83
2023-04-25T05:45:41.640Z,2.78
2023-04-25T05:47:05.988Z,2.60
2023-04-25T05:48:32.284Z,2.72
2023-04-25T05:49:55.186Z,3.45
2023-04-25T05:51:21.155Z,2.58
2023-04-25T05:52:55.330Z,2.58
2023-04-25T05:54:31.716Z,2.80
2023-04-25T05:55:57.198Z,2.92
2023-04-25T05:57:31.022Z,3.13
2023-04-25T05:58:54.939Z,2.90
2023-04-25T06:00:23.624Z,2.67
2023-04-25T06:01:51.413Z,3.10
2023-04-25T06:03:19.521Z,3.40
2023-04-25T06:04:44.474Z,3.08
2023-04-25T06:06:08.645Z,3.13
2023-04-25T06:07:32.601Z,3.72
2023-04-25T06:08:56.489Z,3.05
2023-04-25T06:10:20.101Z,2.92
2023-04-25T06:11:43.555Z,3.85
2023-04-25T06:13:07.359Z,3.42
2023-04-25T06:14:31.471Z,3.20
2023-04-25T06:15:55.052Z,3.40
2023-04-25T06:17:20.147Z,3.15
2023-04-25T06:18:43.648Z,3.80
2023-04-25T06:20:09.285Z,2.97
2023-04-25T06:21:33.314Z,3.40
2023-04-25T06:22:56.833Z,2.97
2023-04-25T06:24:23.173Z,3.30
2023-04-25T06:25:46.798Z,3.22
2023-04-25T06:27:10.406Z,2.90
2023-04-25T06:28:32.898Z,3.13
2023-04-25T06:29:56.367Z,3.08
2023-04-25T06:31:22.018Z,3.17
2023-04-25T06:32:47.345Z,2.95
2023-04-25T06:34:12.473Z,3.45
2023-04-25T06:35:35.998Z,3.60
2023-04-25T06:36:59.549Z,2.92
2023-04-25T06:38:22.145Z,3.05
2023-04-25T06:39:45.765Z,2.78
2023-04-25T06:41:12.013Z,3.53
2023-04-25T06:42:35.621Z,3.33
2023-04-25T06:43:59.732Z,3.22
2023-04-25T06:45:23.304Z,2.85
2023-04-25T06:46:46.890Z,2.90
2023-04-25T06:48:11.953Z,2.90
2023-04-25T06:49:35.517Z,2.70
2023-04-25T06:50:59.044Z,2.65
2023-04-25T06:52:22.477Z,3.05
2023-04-25T06:53:49.773Z,3.53
2023-04-25T06:55:13.218Z,2.92
2023-04-25T06:56:36.741Z,2.90
2023-04-25T06:58:00.990Z,2.72
2023-04-25T06:59:25.261Z,2.88
2023-04-25T07:00:48.952Z,2.35
2023-04-25T07:02:12.597Z,2.90
2023-04-25T07:03:38.652Z,3.10
2023-04-25T07:05:02.301Z,2.58
2023-04-25T07:06:26.876Z,2.88
2023-04-25T07:07:50.468Z,2.63
2023-04-25T07:09:14.131Z,2.50
2023-04-25T07:10:38.852Z,2.75
2023-04-25T07:12:03.761Z,2.60
2023-04-25T07:13:28.934Z,2.55
2023-04-25T07:14:52.368Z,2.45
2023-04-25T07:16:15.983Z,3.00
2023-04-25T07:17:39.576Z,2.58
2023-04-25T07:19:04.409Z,3.00
2023-04-25T07:20:28.766Z,2.58
2023-04-25T07:21:54.058Z,2.67
2023-04-25T07:23:19.796Z,2.30
2023-04-25T07:24:43.347Z,2.83
2023-04-25T07:26:07.032Z,2.53
2023-04-25T07:27:31.652Z,2.60
2023-04-25T07:28:55.660Z,2.15
2023-04-25T07:30:19.263Z,3.08
2023-04-25T07:31:42.982Z,2.38
2023-04-25T07:33:06.687Z,3.20
2023-04-25T07:34:31.391Z,3.22
2023-04-25T07:35:55.097Z,2.80
2023-04-25T07:37:19.804Z,2.58
2023-04-25T07:38:43.308Z,3.15
2023-04-25T07:40:08.848Z,3.17
2023-04-25T07:41:32.375Z,2.42
2023-04-25T07:42:55.996Z,2.53
2023-04-25T07:44:19.487Z,2.75
2023-04-25T07:45:43.417Z,2.45
2023-04-25T07:47:09.180Z,2.67
2023-04-25T07:48:34.741Z,2.75
2023-04-25T07:50:00.834Z,3.17
2023-04-25T07:51:24.348Z,2.85
2023-04-25T07:52:47.991Z,2.70
2023-04-25T07:54:11.692Z,2.38
2023-04-25T07:55:35.662Z,2.80
2023-04-25T07:56:59.175Z,3.15
2023-04-25T07:58:23.243Z,2.83
2023-04-25T07:59:47.066Z,2.97
2023-04-25T08:01:12.766Z,2.78
2023-04-25T08:02:36.514Z,2.65
2023-04-25T08:04:00.397Z,2.85
2023-04-25T08:05:25.899Z,2.63
2023-04-25T08:06:49.784Z,2.85
2023-04-25T08:08:13.498Z,2.90
2023-04-25T08:09:37.782Z,2.55
2023-04-25T08:11:03.696Z,3.00
2023-04-25T08:12:27.441Z,3.40
2023-04-25T08:13:50.999Z,2.17
2023-04-25T08:15:15.174Z,2.67
2023-04-25T08:16:38.741Z,2.47
2023-04-25T08:18:03.373Z,2.53
2023-04-25T08:19:26.878Z,2.50
2023-04-25T08:20:51.947Z,2.63
2023-04-25T08:22:15.845Z,3.10
2023-04-25T08:23:39.340Z,2.78
2023-04-25T08:25:02.989Z,3.75
2023-04-25T08:26:26.714Z,2.78
2023-04-25T08:27:50.271Z,2.72
2023-04-25T08:29:16.889Z,2.53
2023-04-25T08:30:41.432Z,3.08
2023-04-25T08:32:05.075Z,3.17
2023-04-25T08:33:28.733Z,3.00
2023-04-25T08:34:57.207Z,2.63
2023-04-25T08:36:37.686Z,2.67
2023-04-25T08:38:03.211Z,3.08
2023-04-25T08:39:27.173Z,2.47
2023-04-25T08:40:53.290Z,1.92
2023-04-25T08:42:17.653Z,2.80
2023-04-25T08:45:15.105Z,2.45
2023-04-25T08:46:41.267Z,2.20
2023-04-25T08:48:05.517Z,2.60
2023-04-25T08:49:29.336Z,2.17
2023-04-25T08:50:54.255Z,2.85
2023-04-25T08:52:25.662Z,2.55
2023-04-25T08:55:15.731Z,2.80
2023-04-25T08:56:40.053Z,2.53
2023-04-25T08:58:03.589Z,2.17
2023-04-25T08:59:27.145Z,1.90
2023-04-25T09:00:51.524Z,2.25
2023-04-25T09:02:17.620Z,2.47
2023-04-25T09:03:41.535Z,2.30
2023-04-25T09:05:06.305Z,2.33
2023-04-25T09:06:31.431Z,2.17
2023-04-25T09:07:57.410Z,2.50
2023-04-25T09:09:22.590Z,2.28
2023-04-25T09:10:45.993Z,2.28
2023-04-25T09:12:09.592Z,3.50
2023-04-25T09:13:33.116Z,2.13
2023-04-25T09:15:07.831Z,1.92
2023-04-25T09:16:31.938Z,2.10
2023-04-25T09:17:58.436Z,1.80
2023-04-25T09:19:38.212Z,1.60
2023-04-25T09:21:13.680Z,2.17
2023-04-25T09:22:38.713Z,2.00
2023-04-25T09:24:04.178Z,2.70
2023-04-25T09:25:27.656Z,2.20
2023-04-25T09:26:51.568Z,1.85
2023-04-25T09:28:14.968Z,2.50
2023-04-25T09:29:39.321Z,2.92
2023-04-25T09:31:03.035Z,2.10
2023-04-25T09:32:27.393Z,2.70
2023-04-25T09:33:51.857Z,2.35
2023-04-25T09:35:27.416Z,2.38
2023-04-25T09:36:51.618Z,2.00
2023-04-25T09:38:19.195Z,2.72
2023-04-25T09:39:43.098Z,2.00
2023-04-25T09:41:06.641Z,2.38
2023-04-25T09:42:32.910Z,2.17
2023-04-25T09:44:01.276Z,2.05
2023-04-25T09:45:25.093Z,2.58
2023-04-25T09:46:54.753Z,2.15
2023-04-25T09:48:22.026Z,2.28
2023-04-25T09:49:46.059Z,2.38
2023-04-25T09:51:10.797Z,2.00
2023-04-25T09:52:34.311Z,2.45
2023-04-25T09:53:57.821Z,1.83
2023-04-25T09:55:23.896Z,2.65
2023-04-25T09:56:49.298Z,2.40
2023-04-25T09:58:13.993Z,2.05
2023-04-25T09:59:41.358Z,2.33
2023-04-25T10:01:07.733Z,2.30
2023-04-25T10:02:31.241Z,2.78
2023-04-25T10:03:55.914Z,2.70
2023-04-25T10:05:19.690Z,2.08
2023-04-25T10:06:45.375Z,2.33
2023-04-25T10:08:09.736Z,2.58
2023-04-25T10:09:35.447Z,2.47
2023-04-25T10:11:01.240Z,3.45
2023-04-25T10:12:24.939Z,2.53
2023-04-25T10:13:48.944Z,1.92
2023-04-25T10:15:13.683Z,1.92
2023-04-25T10:16:38.243Z,1.98
2023-04-25T10:18:03.492Z,2.20
2023-04-25T10:19:27.279Z,1.90
2023-04-25T10:20:52.724Z,1.67
2023-04-25T10:22:20.924Z,2.00
2023-04-25T10:23:47.117Z,1.80
2023-04-25T10:25:11.283Z,2.22
2023-04-25T10:26:36.276Z,1.85
2023-04-25T10:28:03.125Z,2.38
2023-04-25T10:29:28.554Z,2.33
2023-04-25T10:31:01.653Z,1.88
2023-04-25T10:32:25.488Z,1.80
2023-04-25T10:33:49.154Z,1.83
2023-04-25T10:35:14.622Z,2.83
2023-04-25T10:36:38.550Z,1.92
2023-04-25T10:38:13.570Z,2.03
2023-04-25T10:39:37.004Z,1.67
2023-04-25T10:41:06.275Z,1.70
2023-04-25T10:42:32.501Z,2.03
2023-04-25T10:44:03.327Z,1.52
2023-04-25T10:45:26.841Z,2.00
2023-04-25T10:46:50.539Z,1.92
2023-04-25T10:48:27.939Z,2.13
2023-04-25T10:49:53.786Z,3.45
2023-04-25T10:51:22.077Z,2.58
2023-04-25T10:52:48.060Z,2.60
2023-04-25T10:54:11.597Z,2.60
2023-04-25T10:55:52.743Z,2.13
2023-04-25T10:57:34.566Z,2.83
2023-04-25T10:59:09.920Z,2.25
2023-04-25T11:00:48.051Z,2.45
2023-04-25T11:02:18.387Z,1.73
2023-04-25T11:03:44.026Z,1.88
2023-04-25T11:05:08.430Z,3.45
2023-04-25T11:06:38.504Z,2.88
2023-04-25T11:08:07.634Z,4.15
2023-04-25T11:09:31.028Z,2.28
2023-04-25T11:10:54.682Z,1.40
2023-04-25T11:12:18.614Z,2.28
2023-04-25T11:13:43.626Z,2.40
2023-04-25T11:15:14.205Z,1.83
2023-04-25T11:16:38.478Z,2.42
2023-04-25T11:18:02.385Z,9.30
2023-04-25T11:19:26.707Z,3.28
2023-04-25T11:20:51.103Z,2.63
2023-04-25T11:22:15.037Z,1.92
2023-04-25T11:23:39.068Z,1.50
2023-04-25T11:25:07.820Z,4.55
2023-04-25T11:26:32.920Z,2.70
2023-04-25T11:27:59.992Z,2.13
2023-04-25T11:29:26.193Z,3.75
2023-04-25T11:30:51.454Z,1.98
2023-04-25T11:32:14.132Z,2.28
2023-04-25T11:33:39.613Z,2.30
2023-04-25T11:35:02.986Z,2.05
2023-04-25T11:36:27.053Z,1.60
2023-04-25T11:37:50.638Z,1.92
2023-04-25T11:39:14.405Z,1.70
2023-04-25T11:40:38.448Z,1.58
2023-04-25T11:42:03.828Z,1.67
2023-04-25T11:43:30.376Z,1.33
2023-04-25T11:44:56.109Z,2.05
2023-04-25T11:46:21.005Z,2.72
2023-04-25T11:47:44.675Z,2.13
2023-04-25T11:49:08.311Z,1.65
2023-04-25T11:50:31.772Z,1.48
2023-04-25T11:51:55.360Z,1.90
2023-04-25T11:53:20.709Z,1.50
2023-04-25T11:54:44.276Z,1.20
2023-04-25T11:56:12.470Z,1.48
2023-04-25T11:57:36.036Z,1.65
2023-04-25T11:59:01.760Z,2.22
2023-04-25T12:00:27.608Z,2.20
2023-04-25T12:01:53.508Z,1.85
2023-04-25T12:03:17.225Z,1.80
2023-04-25T12:04:44.257Z,1.75
2023-04-25T12:06:08.420Z,1.77
2023-04-25T12:07:36.305Z,1.45
2023-04-25T12:09:06.730Z,2.20
2023-04-25T12:10:30.145Z,2.03
2023-04-25T12:11:56.588Z,1.90
2023-04-25T12:13:24.759Z,2.20
2023-04-25T12:14:50.747Z,1.70
2023-04-25T12:16:16.008Z,2.13
2023-04-25T12:17:42.491Z,2.10
2023-04-25T12:19:05.912Z,1.63
2023-04-25T12:20:29.396Z,1.63
2023-04-25T12:21:58.514Z,1.75
2023-04-25T12:23:28.958Z,1.75
2023-04-25T12:24:54.444Z,1.35
2023-04-25T12:26:21.091Z,1.70
2023-04-25T12:27:44.959Z,1.25
2023-04-25T12:29:24.954Z,2.15
2023-04-25T12:30:56.089Z,2.33
2023-04-25T12:32:21.058Z,1.55
2023-04-25T12:33:48.754Z,1.33
2023-04-25T12:35:12.236Z,1.75
2023-04-25T12:36:36.348Z,2.03
2023-04-25T12:37:59.767Z,2.25
2023-04-25T12:39:25.315Z,1.98
2023-04-25T12:40:47.975Z,1.65
2023-04-25T12:42:13.574Z,1.70
2023-04-25T12:43:37.752Z,1.40
2023-04-25T12:45:01.184Z,1.40
2023-04-25T12:46:23.984Z,1.42
2023-04-25T12:47:49.083Z,1.35
2023-04-25T12:50:40.864Z,2.22
2023-04-25T12:52:04.517Z,1.80
2023-04-25T12:53:27.982Z,2.05
2023-04-25T12:54:51.553Z,1.90
2023-04-25T12:56:15.003Z,1.70
2023-04-25T12:57:38.466Z,2.45
2023-04-25T12:59:02.053Z,1.70
2023-04-25T13:00:25.767Z,2.05
2023-04-25T13:01:49.410Z,2.05
2023-04-25T13:03:14.720Z,1.90
2023-04-25T13:04:38.564Z,1.77
2023-04-25T13:06:01.526Z,2.25
2023-04-25T13:07:25.012Z,1.92
2023-04-25T13:08:48.594Z,3.15
2023-04-25T13:10:14.169Z,1.50
2023-04-25T13:11:37.684Z,1.70
2023-04-25T13:13:02.166Z,1.45
2023-04-25T13:14:25.709Z,1.63
2023-04-25T13:15:49.908Z,1.30
2023-04-25T13:17:13.279Z,1.38
2023-04-25T13:18:38.072Z,1.30
2023-04-25T13:20:01.512Z,1.70
2023-04-25T13:21:25.810Z,1.77
2023-04-25T13:22:49.370Z,1.80
2023-04-25T13:24:12.844Z,1.80
2023-04-25T13:25:36.358Z,1.40
2023-04-25T13:27:00.014Z,1.60
2023-04-25T13:28:22.584Z,2.22
2023-04-25T13:29:46.193Z,1.85
2023-04-25T13:31:10.127Z,1.83
2023-04-25T13:32:32.587Z,1.35
2023-04-25T13:33:57.471Z,1.50
2023-04-25T13:35:20.987Z,1.75
2023-04-25T13:36:44.463Z,1.40
2023-04-25T13:38:07.946Z,1.10
2023-04-25T13:39:31.366Z,1.30
2023-04-25T13:40:55.174Z,1.88
2023-04-25T13:42:18.720Z,1.55
2023-04-25T13:43:43.826Z,1.52
2023-04-25T13:45:08.334Z,1.55
2023-04-25T13:46:45.503Z,2.25
2023-04-25T13:48:10.260Z,1.30
2023-04-25T13:49:36.012Z,1.60
2023-04-25T13:50:59.707Z,1.33
2023-04-25T13:52:24.996Z,0.93
2023-04-25T13:53:48.723Z,1.10
2023-04-25T13:55:12.719Z,1.48
2023-04-25T13:56:36.481Z,1.80
2023-04-25T13:58:00.374Z,1.52
2023-04-25T13:59:23.801Z,1.70
2023-04-25T14:00:47.904Z,1.70
2023-04-25T14:02:11.554Z,1.65
2023-04-25T14:03:35.341Z,1.70
2023-04-25T14:05:00.306Z,1.85
2023-04-25T14:06:25.794Z,1.70
2023-04-25T14:07:52.118Z,1.60
2023-04-25T14:09:16.508Z,1.20
2023-04-25T14:10:40.067Z,1.42
2023-04-25T14:12:03.724Z,1.95
2023-04-25T14:13:27.241Z,1.23
2023-04-25T14:14:50.826Z,2.42
2023-04-25T14:16:14.528Z,1.67
2023-04-25T14:17:39.306Z,1.33
2023-04-25T14:19:02.910Z,1.60
2023-04-25T14:20:27.835Z,1.25
2023-04-25T14:21:51.335Z,1.35
2023-04-25T14:23:15.163Z,1.23
2023-04-25T14:24:39.226Z,1.35
2023-04-25T14:26:02.663Z,2.10
2023-04-25T14:27:28.545Z,1.30
2023-04-25T14:28:53.223Z,1.30
2023-04-25T14:30:16.966Z,1.00
2023-04-25T14:31:41.098Z,1.48
2023-04-25T14:33:04.848Z,0.90
2023-04-25T14:34:28.526Z,1.67
2023-04-25T14:35:53.942Z,1.70
2023-04-25T14:37:18.021Z,1.40
2023-04-25T14:38:41.520Z,1.40
2023-04-25T14:40:05.592Z,1.48
2023-04-25T14:41:29.254Z,1.80
2023-04-25T14:42:53.163Z,2.03
2023-04-25T14:44:16.670Z,1.00
2023-04-25T14:45:40.445Z,1.48
2023-04-25T14:47:04.019Z,1.42
2023-04-25T14:48:27.615Z,1.55
2023-04-25T14:49:55.111Z,1.27
2023-04-25T14:51:21.896Z,1.60
2023-04-25T14:52:46.040Z,1.85
2023-04-25T14:54:09.699Z,1.48
2023-04-25T14:55:33.490Z,1.40
2023-04-25T14:56:57.725Z,1.40
2023-04-25T14:58:21.536Z,1.38
2023-04-25T14:59:45.211Z,1.50
2023-04-25T15:01:09.342Z,1.50
2023-04-25T15:02:33.604Z,1.33
2023-04-25T15:03:58.635Z,1.52
2023-04-25T15:05:22.480Z,1.85
2023-04-25T15:06:47.316Z,1.30
2023-04-25T15:08:12.137Z,0.93
2023-04-25T15:09:35.546Z,1.35
2023-04-25T15:10:59.097Z,1.13
2023-04-25T15:12:22.658Z,1.40
2023-04-25T15:13:45.205Z,1.40
2023-04-25T15:15:14.220Z,1.65
2023-04-25T15:16:41.365Z,1.23
2023-04-25T15:18:05.152Z,1.80
2023-04-25T15:19:29.141Z,1.08
2023-04-25T15:20:53.536Z,1.20
2023-04-25T15:22:18.320Z,1.92
2023-04-25T15:23:42.087Z,1.60
2023-04-25T15:25:08.568Z,1.73
2023-04-25T15:26:32.118Z,1.70
2023-04-25T15:27:55.864Z,1.55
2023-04-25T15:29:20.113Z,1.52
2023-04-25T15:30:43.659Z,2.08
2023-04-25T15:32:07.313Z,1.77
2023-04-25T15:33:30.773Z,1.63
2023-04-25T15:34:54.165Z,1.13
2023-04-25T15:36:19.465Z,1.90
2023-04-25T15:37:44.542Z,1.58
2023-04-25T15:39:08.018Z,1.63
2023-04-25T15:40:31.538Z,1.70
2023-04-25T15:41:54.993Z,1.80
2023-04-25T15:43:18.808Z,1.92
2023-04-25T15:44:42.262Z,1.48
2023-04-25T15:46:06.545Z,1.50
2023-04-25T15:47:30.129Z,1.20
2023-04-25T15:48:53.611Z,1.35
2023-04-25T15:50:17.301Z,1.02
2023-04-25T15:51:40.812Z,1.83
2023-04-25T15:53:07.152Z,1.40
2023-04-25T15:54:31.329Z,1.00
2023-04-25T15:55:54.834Z,1.30
2023-04-25T15:57:17.329Z,0.50
2023-04-25T15:58:42.397Z,1.42
2023-04-25T16:00:11.277Z,0.80
2023-04-25T16:01:34.866Z,1.10
2023-04-25T16:02:58.549Z,1.33
2023-04-25T16:04:23.392Z,1.60
2023-04-25T16:05:47.250Z,1.30
2023-04-25T16:07:10.860Z,1.60
2023-04-25T16:08:36.190Z,1.20
2023-04-25T16:10:00.567Z,1.15
2023-04-25T16:11:24.026Z,1.85
2023-04-25T16:12:48.468Z,1.27
2023-04-25T16:14:12.117Z,1.10
2023-04-25T16:15:35.817Z,1.58
2023-04-25T16:17:01.988Z,0.93
2023-04-25T16:18:25.619Z,1.27
2023-04-25T16:19:50.275Z,1.65
2023-04-25T16:21:17.108Z,1.40
2023-04-25T16:22:41.565Z,1.13
2023-04-25T16:24:06.881Z,1.13
2023-04-25T16:25:30.529Z,1.23
2023-04-25T16:26:54.033Z,1.30
2023-04-25T16:28:17.517Z,1.42
2023-04-25T16:29:42.347Z,1.23
2023-04-25T16:31:06.875Z,1.02
2023-04-25T16:32:30.776Z,0.60
2023-04-25T16:33:54.380Z,0.90
2023-04-25T16:35:17.885Z,0.98
2023-04-25T16:36:47.201Z,1.30
2023-04-25T16:38:10.898Z,1.08
2023-04-25T16:39:35.828Z,0.57
2023-04-25T16:40:59.275Z,1.30
2023-04-25T16:42:21.838Z,0.88
2023-04-25T16:43:45.843Z,1.20
2023-04-25T16:45:11.045Z,0.77
2023-04-25T16:46:34.721Z,0.90
2023-04-25T16:47:58.561Z,0.90
2023-04-25T16:49:22.251Z,1.13
2023-04-25T16:50:45.773Z,0.90
2023-04-25T16:52:09.393Z,0.75
2023-04-25T16:53:34.093Z,1.00
2023-04-25T16:54:59.124Z,1.30
2023-04-25T16:56:22.918Z,1.98
2023-04-25T16:57:46.928Z,1.02
2023-04-25T16:59:11.024Z,1.55
2023-04-25T17:00:34.737Z,1.88
2023-04-25T17:01:58.346Z,1.52
2023-04-25T17:03:23.036Z,1.02
2023-04-25T17:04:46.800Z,1.10
2023-04-25T17:06:14.670Z,1.27
2023-04-25T17:07:38.085Z,1.50
2023-04-25T17:09:01.572Z,1.05
2023-04-25T17:10:26.349Z,1.30
2023-04-25T17:11:51.566Z,0.93
2023-04-25T17:13:15.089Z,0.98
2023-04-25T17:14:39.042Z,1.55
2023-04-25T17:16:03.187Z,1.15
2023-04-25T17:17:27.876Z,0.95
2023-04-25T17:18:52.520Z,1.70
2023-04-25T17:20:16.441Z,0.88
2023-04-25T17:21:41.045Z,1.35
2023-04-25T17:23:04.828Z,0.93
2023-04-25T17:24:27.272Z,1.50
2023-04-25T17:25:52.072Z,0.90
2023-04-25T17:27:15.608Z,1.75
2023-04-25T17:28:39.162Z,1.80
2023-04-25T17:30:03.939Z,1.20
2023-04-25T17:31:27.762Z,1.17
2023-04-25T17:32:51.968Z,1.02
2023-04-25T17:34:18.139Z,2.10
2023-04-25T17:35:41.596Z,1.95
2023-04-25T17:37:05.045Z,1.20
2023-04-25T17:38:28.701Z,1.40
2023-04-25T17:39:52.461Z,1.00
2023-04-25T17:41:17.555Z,1.67
2023-04-25T17:42:41.688Z,1.90
2023-04-25T17:44:04.704Z,2.58
2023-04-25T17:45:30.213Z,1.65
2023-04-25T17:46:53.660Z,1.42
2023-04-25T17:48:17.163Z,1.40
2023-04-25T17:49:41.028Z,1.48
2023-04-25T17:51:04.602Z,0.80
2023-04-25T17:52:28.375Z,1.10
2023-04-25T17:53:52.404Z,1.25
2023-04-25T17:55:15.925Z,1.08
2023-04-25T17:56:40.996Z,1.20
2023-04-25T17:58:04.513Z,1.63
2023-04-25T17:59:28.996Z,1.20
2023-04-25T18:00:52.474Z,1.30
2023-04-25T18:02:17.412Z,1.38
2023-04-25T18:03:45.097Z,1.30
2023-04-25T18:05:10.797Z,0.80
2023-04-25T18:06:34.628Z,1.88
2023-04-25T18:07:59.013Z,2.75
2023-04-25T18:09:23.636Z,0.90
2023-04-25T18:10:47.347Z,1.08
2023-04-25T18:12:13.205Z,2.25
2023-04-25T18:13:38.753Z,1.10
2023-04-25T18:15:01.899Z,2.05
2023-04-25T18:16:25.680Z,1.63
2023-04-25T18:17:49.247Z,1.00
2023-04-25T18:19:16.579Z,1.30
2023-04-25T18:20:39.946Z,1.50
2023-04-25T18:22:03.833Z,1.73
2023-04-25T18:23:27.767Z,1.30
2023-04-25T18:24:52.227Z,1.02
2023-04-25T18:26:16.111Z,1.20
2023-04-25T18:27:42.142Z,1.98
2023-04-25T18:29:07.518Z,1.50
2023-04-25T18:30:31.135Z,2.83
2023-04-25T18:31:54.797Z,1.65
2023-04-25T18:33:18.428Z,3.83
2023-04-25T18:34:43.913Z,1.50
2023-04-25T18:36:08.306Z,4.18
2023-04-25T18:37:31.760Z,3.30
2023-04-25T18:38:57.264Z,2.58
2023-04-25T18:40:23.028Z,2.08
2023-04-25T18:41:55.167Z,1.70
2023-04-25T18:43:23.484Z,2.42
2023-04-25T18:44:46.420Z,1.83
2023-04-25T18:46:09.942Z,2.88
2023-04-25T18:47:33.509Z,1.83
2023-04-25T18:48:57.520Z,2.88
2023-04-25T18:50:23.232Z,2.10
2023-04-25T18:51:45.678Z,1.50
2023-04-25T18:53:09.580Z,1.55
2023-04-25T18:54:33.024Z,1.80